Terminal Aerodrome Forecast
Issued by NWS

Home | Current Version | Previous Version | Text Only | Print | Product List | Glossary On
Versions: 1 2 3 4 5 6 7 8 9 10 11 12 13 14 15 16 17 18 19 20 21 22 23 24 25 26 27 28
000
FTUS43 KDLH 251901 AAA
TAFBRD
TAF AMD
KBRD 251901Z 2519/2618 32013KT P6SM SKC
     FM252300 34009KT P6SM SKC
     FM260200 35003KT P6SM SKC
     FM261400 05005KT P6SM SKC=

USA.gov is the U.S. government's official web portal to all federal, state and local government web resources and services.